sensor_id;sensor_type;location;lat;lon;timestamp;P1;durP1;ratioP1;P2;durP2;ratioP2
84288;SDS011;75147;50.294;18.660;2024-02-26T00:02:22;29.65;;;13.52;;
84288;SDS011;75147;50.294;18.660;2024-02-26T00:04:48;30.08;;;13.52;;
84288;SDS011;75147;50.294;18.660;2024-02-26T00:07:14;28.92;;;12.68;;
84288;SDS011;75147;50.294;18.660;2024-02-26T00:09:39;28.80;;;12.77;;
84288;SDS011;75147;50.294;18.660;2024-02-26T00:12:04;32.22;;;13.00;;
84288;SDS011;75147;50.294;18.660;2024-02-26T00:14:30;28.13;;;12.38;;
84288;SDS011;75147;50.294;18.660;2024-02-26T00:16:56;31.63;;;13.73;;
84288;SDS011;75147;50.294;18.660;2024-02-26T00:19:22;27.67;;;12.65;;
84288;SDS011;75147;50.294;18.660;2024-02-26T00:21:47;25.83;;;12.13;;
84288;SDS011;75147;50.294;18.660;2024-02-26T00:24:12;25.35;;;11.70;;
84288;SDS011;75147;50.294;18.660;2024-02-26T00:26:38;29.90;;;13.02;;
84288;SDS011;75147;50.294;18.660;2024-02-26T00:29:03;31.00;;;12.77;;
84288;SDS011;75147;50.294;18.660;2024-02-26T00:31:29;30.17;;;12.80;;
84288;SDS011;75147;50.294;18.660;2024-02-26T00:33:54;31.35;;;12.75;;
84288;SDS011;75147;50.294;18.660;2024-02-26T00:36:20;26.25;;;13.07;;
84288;SDS011;75147;50.294;18.660;2024-02-26T00:38:45;24.63;;;13.02;;
84288;SDS011;75147;50.294;18.660;2024-02-26T00:41:15;29.80;;;13.20;;
84288;SDS011;75147;50.294;18.660;2024-02-26T00:43:44;25.42;;;12.93;;
84288;SDS011;75147;50.294;18.660;2024-02-26T00:46:10;30.92;;;12.60;;
84288;SDS011;75147;50.294;18.660;2024-02-26T00:48:35;29.27;;;13.70;;
84288;SDS011;75147;50.294;18.660;2024-02-26T00:51:00;23.48;;;12.18;;
84288;SDS011;75147;50.294;18.660;2024-02-26T00:53:26;27.80;;;13.60;;
84288;SDS011;75147;50.294;18.660;2024-02-26T00:55:51;27.25;;;12.85;;
84288;SDS011;75147;50.294;18.660;2024-02-26T00:58:17;29.40;;;13.65;;
84288;SDS011;75147;50.294;18.660;2024-02-26T01:00:43;28.52;;;12.52;;
84288;SDS011;75147;50.294;18.660;2024-02-26T01:03:08;25.95;;;13.00;;
84288;SDS011;75147;50.294;18.660;2024-02-26T01:05:35;28.10;;;12.93;;
84288;SDS011;75147;50.294;18.660;2024-02-26T01:08:01;28.90;;;13.02;;
84288;SDS011;75147;50.294;18.660;2024-02-26T01:10:26;26.83;;;12.25;;
84288;SDS011;75147;50.294;18.660;2024-02-26T01:12:52;26.55;;;12.25;;
84288;SDS011;75147;50.294;18.660;2024-02-26T01:15:17;29.88;;;12.55;;
84288;SDS011;75147;50.294;18.660;2024-02-26T01:17:46;31.95;;;13.43;;
84288;SDS011;75147;50.294;18.660;2024-02-26T01:20:12;28.48;;;12.80;;
84288;SDS011;75147;50.294;18.660;2024-02-26T01:22:38;32.67;;;12.77;;
84288;SDS011;75147;50.294;18.660;2024-02-26T01:25:03;28.00;;;13.13;;
84288;SDS011;75147;50.294;18.660;2024-02-26T01:27:29;26.60;;;12.30;;
84288;SDS011;75147;50.294;18.660;2024-02-26T01:29:54;27.02;;;13.07;;
84288;SDS011;75147;50.294;18.660;2024-02-26T01:32:20;25.30;;;11.57;;
84288;SDS011;75147;50.294;18.660;2024-02-26T01:34:45;23.65;;;11.55;;
84288;SDS011;75147;50.294;18.660;2024-02-26T01:37:11;25.05;;;12.55;;
84288;SDS011;75147;50.294;18.660;2024-02-26T01:39:36;26.67;;;11.75;;
84288;SDS011;75147;50.294;18.660;2024-02-26T01:42:02;27.73;;;11.77;;
84288;SDS011;75147;50.294;18.660;2024-02-26T01:44:27;24.15;;;11.95;;
84288;SDS011;75147;50.294;18.660;2024-02-26T01:46:53;28.10;;;12.70;;
84288;SDS011;75147;50.294;18.660;2024-02-26T01:49:19;27.38;;;12.00;;
84288;SDS011;75147;50.294;18.660;2024-02-26T01:51:44;22.67;;;11.05;;
84288;SDS011;75147;50.294;18.660;2024-02-26T01:54:10;25.10;;;12.50;;
84288;SDS011;75147;50.294;18.660;2024-02-26T01:56:36;24.75;;;11.40;;
84288;SDS011;75147;50.294;18.660;2024-02-26T01:59:02;27.60;;;11.43;;
84288;SDS011;75147;50.294;18.660;2024-02-26T02:01:30;24.38;;;12.27;;
84288;SDS011;75147;50.294;18.660;2024-02-26T02:03:57;22.85;;;11.32;;
84288;SDS011;75147;50.294;18.660;2024-02-26T02:06:24;24.00;;;12.07;;
84288;SDS011;75147;50.294;18.660;2024-02-26T02:08:49;23.42;;;11.48;;
84288;SDS011;75147;50.294;18.660;2024-02-26T02:11:15;27.58;;;11.77;;
84288;SDS011;75147;50.294;18.660;2024-02-26T02:13:41;27.88;;;12.13;;
84288;SDS011;75147;50.294;18.660;2024-02-26T02:16:07;28.88;;;11.77;;
84288;SDS011;75147;50.294;18.660;2024-02-26T02:18:33;25.27;;;12.85;;
84288;SDS011;75147;50.294;18.660;2024-02-26T02:20:59;23.45;;;11.38;;
84288;SDS011;75147;50.294;18.660;2024-02-26T02:23:25;25.67;;;11.77;;
84288;SDS011;75147;50.294;18.660;2024-02-26T02:25:51;32.17;;;11.73;;
84288;SDS011;75147;50.294;18.660;2024-02-26T02:28:17;23.15;;;11.75;;
84288;SDS011;75147;50.294;18.660;2024-02-26T02:30:43;30.88;;;12.35;;
84288;SDS011;75147;50.294;18.660;2024-02-26T02:33:09;24.52;;;11.88;;
84288;SDS011;75147;50.294;18.660;2024-02-26T02:35:34;23.83;;;10.68;;
84288;SDS011;75147;50.294;18.660;2024-02-26T02:37:59;27.10;;;11.00;;
84288;SDS011;75147;50.294;18.660;2024-02-26T02:40:25;24.25;;;11.65;;
84288;SDS011;75147;50.294;18.660;2024-02-26T02:42:50;33.53;;;12.15;;
84288;SDS011;75147;50.294;18.660;2024-02-26T02:45:16;24.55;;;11.52;;
84288;SDS011;75147;50.294;18.660;2024-02-26T02:47:41;24.60;;;10.93;;
84288;SDS011;75147;50.294;18.660;2024-02-26T02:50:07;19.40;;;10.48;;
84288;SDS011;75147;50.294;18.660;2024-02-26T02:52:32;23.23;;;11.75;;
84288;SDS011;75147;50.294;18.660;2024-02-26T02:54:58;22.33;;;10.65;;
84288;SDS011;75147;50.294;18.660;2024-02-26T02:57:23;21.90;;;10.30;;
84288;SDS011;75147;50.294;18.660;2024-02-26T02:59:48;23.98;;;10.63;;
84288;SDS011;75147;50.294;18.660;2024-02-26T03:02:14;30.65;;;11.65;;
84288;SDS011;75147;50.294;18.660;2024-02-26T03:04:39;21.50;;;10.60;;
84288;SDS011;75147;50.294;18.660;2024-02-26T03:07:05;22.67;;;10.38;;
84288;SDS011;75147;50.294;18.660;2024-02-26T03:09:30;20.65;;;10.65;;
84288;SDS011;75147;50.294;18.660;2024-02-26T03:11:56;23.23;;;10.68;;
84288;SDS011;75147;50.294;18.660;2024-02-26T03:14:21;20.33;;;10.82;;
84288;SDS011;75147;50.294;18.660;2024-02-26T03:16:47;24.92;;;11.80;;
84288;SDS011;75147;50.294;18.660;2024-02-26T03:19:15;22.40;;;10.65;;
84288;SDS011;75147;50.294;18.660;2024-02-26T03:21:43;28.45;;;11.73;;
84288;SDS011;75147;50.294;18.660;2024-02-26T03:24:09;21.10;;;10.63;;
84288;SDS011;75147;50.294;18.660;2024-02-26T03:26:35;26.83;;;13.13;;
84288;SDS011;75147;50.294;18.660;2024-02-26T03:29:01;26.23;;;12.07;;
84288;SDS011;75147;50.294;18.660;2024-02-26T03:31:27;27.20;;;11.90;;
84288;SDS011;75147;50.294;18.660;2024-02-26T03:33:53;24.00;;;11.43;;
84288;SDS011;75147;50.294;18.660;2024-02-26T03:36:18;25.95;;;10.77;;
84288;SDS011;75147;50.294;18.660;2024-02-26T03:38:44;19.73;;;10.85;;
84288;SDS011;75147;50.294;18.660;2024-02-26T03:41:09;22.42;;;10.48;;
84288;SDS011;75147;50.294;18.660;2024-02-26T03:43:35;23.10;;;11.20;;
84288;SDS011;75147;50.294;18.660;2024-02-26T03:46:00;21.73;;;9.90;;
84288;SDS011;75147;50.294;18.660;2024-02-26T03:48:26;20.58;;;10.07;;
84288;SDS011;75147;50.294;18.660;2024-02-26T03:50:51;22.83;;;10.85;;
84288;SDS011;75147;50.294;18.660;2024-02-26T03:53:17;23.50;;;10.95;;
84288;SDS011;75147;50.294;18.660;2024-02-26T03:55:43;29.02;;;11.93;;
84288;SDS011;75147;50.294;18.660;2024-02-26T03:58:08;23.38;;;10.65;;
84288;SDS011;75147;50.294;18.660;2024-02-26T04:00:34;26.80;;;11.50;;
84288;SDS011;75147;50.294;18.660;2024-02-26T04:02:59;21.33;;;11.27;;
84288;SDS011;75147;50.294;18.660;2024-02-26T04:05:25;21.67;;;10.98;;
84288;SDS011;75147;50.294;18.660;2024-02-26T04:07:50;24.80;;;10.52;;
84288;SDS011;75147;50.294;18.660;2024-02-26T04:10:15;18.63;;;9.75;;
84288;SDS011;75147;50.294;18.660;2024-02-26T04:12:42;21.40;;;9.82;;
84288;SDS011;75147;50.294;18.660;2024-02-26T04:15:08;19.90;;;9.23;;
84288;SDS011;75147;50.294;18.660;2024-02-26T04:17:34;20.30;;;9.57;;
84288;SDS011;75147;50.294;18.660;2024-02-26T04:19:59;18.48;;;9.48;;
84288;SDS011;75147;50.294;18.660;2024-02-26T04:22:24;20.02;;;9.93;;
84288;SDS011;75147;50.294;18.660;2024-02-26T04:24:50;18.92;;;10.07;;
84288;SDS011;75147;50.294;18.660;2024-02-26T04:27:15;17.90;;;9.60;;
84288;SDS011;75147;50.294;18.660;2024-02-26T04:29:41;21.42;;;10.02;;
84288;SDS011;75147;50.294;18.660;2024-02-26T04:32:06;20.10;;;9.75;;
84288;SDS011;75147;50.294;18.660;2024-02-26T04:34:31;21.85;;;10.27;;
84288;SDS011;75147;50.294;18.660;2024-02-26T04:36:57;22.98;;;11.75;;
84288;SDS011;75147;50.294;18.660;2024-02-26T04:39:22;21.63;;;11.07;;
84288;SDS011;75147;50.294;18.660;2024-02-26T04:41:48;18.35;;;10.68;;
84288;SDS011;75147;50.294;18.660;2024-02-26T04:44:13;19.90;;;10.65;;
84288;SDS011;75147;50.294;18.660;2024-02-26T04:46:38;21.42;;;10.48;;
84288;SDS011;75147;50.294;18.660;2024-02-26T04:49:04;20.92;;;10.60;;
84288;SDS011;75147;50.294;18.660;2024-02-26T04:51:29;20.48;;;10.30;;
84288;SDS011;75147;50.294;18.660;2024-02-26T04:53:55;27.77;;;12.20;;
84288;SDS011;75147;50.294;18.660;2024-02-26T04:56:21;26.33;;;12.63;;
84288;SDS011;75147;50.294;18.660;2024-02-26T04:58:47;24.60;;;12.85;;
84288;SDS011;75147;50.294;18.660;2024-02-26T05:01:12;29.73;;;13.68;;
84288;SDS011;75147;50.294;18.660;2024-02-26T05:03:37;22.90;;;13.02;;
84288;SDS011;75147;50.294;18.660;2024-02-26T05:06:04;27.75;;;12.82;;
84288;SDS011;75147;50.294;18.660;2024-02-26T05:08:30;23.20;;;12.50;;
84288;SDS011;75147;50.294;18.660;2024-02-26T05:10:55;29.10;;;13.93;;
84288;SDS011;75147;50.294;18.660;2024-02-26T05:13:21;25.23;;;12.07;;
84288;SDS011;75147;50.294;18.660;2024-02-26T05:15:46;21.25;;;11.88;;
84288;SDS011;75147;50.294;18.660;2024-02-26T05:18:14;29.95;;;13.35;;
84288;SDS011;75147;50.294;18.660;2024-02-26T05:20:40;27.73;;;13.05;;
84288;SDS011;75147;50.294;18.660;2024-02-26T05:23:05;22.85;;;12.45;;
84288;SDS011;75147;50.294;18.660;2024-02-26T05:25:31;31.27;;;13.70;;
84288;SDS011;75147;50.294;18.660;2024-02-26T05:27:56;27.38;;;13.77;;
84288;SDS011;75147;50.294;18.660;2024-02-26T05:30:22;25.95;;;13.65;;
84288;SDS011;75147;50.294;18.660;2024-02-26T05:32:47;27.17;;;14.43;;
84288;SDS011;75147;50.294;18.660;2024-02-26T05:35:12;24.17;;;13.32;;
84288;SDS011;75147;50.294;18.660;2024-02-26T05:37:38;25.60;;;14.05;;
84288;SDS011;75147;50.294;18.660;2024-02-26T05:40:04;29.27;;;13.55;;
84288;SDS011;75147;50.294;18.660;2024-02-26T05:42:30;25.17;;;13.45;;
84288;SDS011;75147;50.294;18.660;2024-02-26T05:44:56;27.83;;;13.25;;
84288;SDS011;75147;50.294;18.660;2024-02-26T05:47:22;23.15;;;12.98;;
84288;SDS011;75147;50.294;18.660;2024-02-26T05:49:47;24.02;;;13.10;;
84288;SDS011;75147;50.294;18.660;2024-02-26T05:52:13;29.98;;;13.35;;
84288;SDS011;75147;50.294;18.660;2024-02-26T05:54:39;25.42;;;13.50;;
84288;SDS011;75147;50.294;18.660;2024-02-26T05:57:04;28.98;;;13.15;;
84288;SDS011;75147;50.294;18.660;2024-02-26T05:59:30;26.15;;;12.50;;
84288;SDS011;75147;50.294;18.660;2024-02-26T06:01:55;23.50;;;12.55;;
84288;SDS011;75147;50.294;18.660;2024-02-26T06:04:21;26.15;;;12.63;;
84288;SDS011;75147;50.294;18.660;2024-02-26T06:06:46;26.33;;;14.23;;
84288;SDS011;75147;50.294;18.660;2024-02-26T06:09:11;26.33;;;13.93;;
84288;SDS011;75147;50.294;18.660;2024-02-26T06:11:37;30.42;;;12.75;;
84288;SDS011;75147;50.294;18.660;2024-02-26T06:14:03;22.75;;;11.98;;
84288;SDS011;75147;50.294;18.660;2024-02-26T06:16:28;20.13;;;12.43;;
84288;SDS011;75147;50.294;18.660;2024-02-26T06:18:53;24.55;;;12.98;;
84288;SDS011;75147;50.294;18.660;2024-02-26T06:21:19;25.40;;;12.85;;
84288;SDS011;75147;50.294;18.660;2024-02-26T06:23:44;22.33;;;12.35;;
84288;SDS011;75147;50.294;18.660;2024-02-26T06:26:10;22.85;;;12.43;;
84288;SDS011;75147;50.294;18.660;2024-02-26T06:28:35;23.95;;;12.65;;
84288;SDS011;75147;50.294;18.660;2024-02-26T06:31:01;24.50;;;13.70;;
84288;SDS011;75147;50.294;18.660;2024-02-26T06:33:27;27.55;;;13.75;;
84288;SDS011;75147;50.294;18.660;2024-02-26T06:35:53;23.02;;;13.02;;
84288;SDS011;75147;50.294;18.660;2024-02-26T06:38:18;29.00;;;13.52;;
84288;SDS011;75147;50.294;18.660;2024-02-26T06:40:44;28.40;;;12.75;;
84288;SDS011;75147;50.294;18.660;2024-02-26T06:43:09;24.25;;;13.05;;
84288;SDS011;75147;50.294;18.660;2024-02-26T06:45:35;29.25;;;13.65;;
84288;SDS011;75147;50.294;18.660;2024-02-26T06:48:00;24.38;;;12.40;;
84288;SDS011;75147;50.294;18.660;2024-02-26T06:50:27;22.88;;;12.10;;
84288;SDS011;75147;50.294;18.660;2024-02-26T06:52:52;29.60;;;13.93;;
84288;SDS011;75147;50.294;18.660;2024-02-26T06:55:18;25.80;;;13.45;;
84288;SDS011;75147;50.294;18.660;2024-02-26T06:57:43;23.95;;;12.98;;
84288;SDS011;75147;50.294;18.660;2024-02-26T07:00:09;25.83;;;12.43;;
84288;SDS011;75147;50.294;18.660;2024-02-26T07:02:39;24.35;;;13.23;;
84288;SDS011;75147;50.294;18.660;2024-02-26T07:05:05;25.65;;;15.10;;
84288;SDS011;75147;50.294;18.660;2024-02-26T07:07:31;29.50;;;13.00;;
84288;SDS011;75147;50.294;18.660;2024-02-26T07:09:56;25.30;;;13.52;;
84288;SDS011;75147;50.294;18.660;2024-02-26T07:12:21;23.75;;;11.95;;
84288;SDS011;75147;50.294;18.660;2024-02-26T07:14:47;29.83;;;13.30;;
84288;SDS011;75147;50.294;18.660;2024-02-26T07:17:13;26.23;;;14.43;;
84288;SDS011;75147;50.294;18.660;2024-02-26T07:19:41;26.90;;;12.68;;
84288;SDS011;75147;50.294;18.660;2024-02-26T07:22:06;30.00;;;13.43;;
84288;SDS011;75147;50.294;18.660;2024-02-26T07:24:32;28.88;;;12.63;;
84288;SDS011;75147;50.294;18.660;2024-02-26T07:26:57;30.83;;;14.75;;
84288;SDS011;75147;50.294;18.660;2024-02-26T07:29:22;27.10;;;13.20;;
84288;SDS011;75147;50.294;18.660;2024-02-26T07:31:48;26.20;;;13.25;;
84288;SDS011;75147;50.294;18.660;2024-02-26T07:34:13;27.60;;;14.65;;
84288;SDS011;75147;50.294;18.660;2024-02-26T07:36:39;23.75;;;13.45;;
84288;SDS011;75147;50.294;18.660;2024-02-26T07:39:05;25.98;;;13.48;;
84288;SDS011;75147;50.294;18.660;2024-02-26T07:41:30;29.48;;;13.80;;
84288;SDS011;75147;50.294;18.660;2024-02-26T07:43:56;22.05;;;12.40;;
84288;SDS011;75147;50.294;18.660;2024-02-26T07:46:21;32.33;;;14.60;;
84288;SDS011;75147;50.294;18.660;2024-02-26T07:48:47;25.58;;;12.23;;
84288;SDS011;75147;50.294;18.660;2024-02-26T07:51:13;24.05;;;13.65;;
84288;SDS011;75147;50.294;18.660;2024-02-26T07:53:39;24.75;;;11.80;;
84288;SDS011;75147;50.294;18.660;2024-02-26T07:56:04;22.35;;;12.02;;
84288;SDS011;75147;50.294;18.660;2024-02-26T07:58:31;24.15;;;12.40;;
84288;SDS011;75147;50.294;18.660;2024-02-26T08:00:57;21.85;;;11.73;;
84288;SDS011;75147;50.294;18.660;2024-02-26T08:03:23;20.65;;;10.05;;
84288;SDS011;75147;50.294;18.660;2024-02-26T08:05:48;21.58;;;10.75;;
84288;SDS011;75147;50.294;18.660;2024-02-26T08:08:13;22.50;;;10.68;;
84288;SDS011;75147;50.294;18.660;2024-02-26T08:10:39;20.85;;;9.40;;
84288;SDS011;75147;50.294;18.660;2024-02-26T08:13:04;22.30;;;10.38;;
84288;SDS011;75147;50.294;18.660;2024-02-26T08:15:33;26.88;;;10.88;;
84288;SDS011;75147;50.294;18.660;2024-02-26T08:18:00;24.05;;;10.18;;
84288;SDS011;75147;50.294;18.660;2024-02-26T08:20:28;24.23;;;11.50;;
84288;SDS011;75147;50.294;18.660;2024-02-26T08:22:55;27.77;;;10.50;;
84288;SDS011;75147;50.294;18.660;2024-02-26T08:25:21;33.78;;;9.38;;
84288;SDS011;75147;50.294;18.660;2024-02-26T08:27:46;22.75;;;9.15;;
84288;SDS011;75147;50.294;18.660;2024-02-26T08:30:13;52.58;;;11.95;;
84288;SDS011;75147;50.294;18.660;2024-02-26T08:32:48;48.78;;;11.63;;
84288;SDS011;75147;50.294;18.660;2024-02-26T08:35:13;28.67;;;9.93;;
84288;SDS011;75147;50.294;18.660;2024-02-26T08:37:39;23.55;;;9.02;;
84288;SDS011;75147;50.294;18.660;2024-02-26T08:40:05;20.85;;;8.80;;
84288;SDS011;75147;50.294;18.660;2024-02-26T08:42:31;17.95;;;7.70;;
84288;SDS011;75147;50.294;18.660;2024-02-26T08:44:56;15.82;;;7.80;;
84288;SDS011;75147;50.294;18.660;2024-02-26T08:47:25;16.90;;;7.65;;
84288;SDS011;75147;50.294;18.660;2024-02-26T08:49:50;12.85;;;7.68;;
84288;SDS011;75147;50.294;18.660;2024-02-26T08:52:16;14.38;;;7.78;;
84288;SDS011;75147;50.294;18.660;2024-02-26T08:54:41;15.40;;;8.07;;
84288;SDS011;75147;50.294;18.660;2024-02-26T08:57:07;14.27;;;7.22;;
84288;SDS011;75147;50.294;18.660;2024-02-26T08:59:32;11.65;;;6.53;;
84288;SDS011;75147;50.294;18.660;2024-02-26T09:01:57;12.48;;;6.80;;
84288;SDS011;75147;50.294;18.660;2024-02-26T09:04:23;14.07;;;6.55;;
84288;SDS011;75147;50.294;18.660;2024-02-26T09:06:48;9.90;;;5.72;;
84288;SDS011;75147;50.294;18.660;2024-02-26T09:09:14;10.38;;;5.47;;
84288;SDS011;75147;50.294;18.660;2024-02-26T09:11:39;11.95;;;6.05;;
84288;SDS011;75147;50.294;18.660;2024-02-26T09:14:05;9.18;;;5.68;;
84288;SDS011;75147;50.294;18.660;2024-02-26T09:16:30;10.55;;;6.10;;
84288;SDS011;75147;50.294;18.660;2024-02-26T09:18:56;13.32;;;5.63;;
84288;SDS011;75147;50.294;18.660;2024-02-26T09:21:22;12.90;;;5.90;;
84288;SDS011;75147;50.294;18.660;2024-02-26T09:23:51;12.10;;;5.93;;
84288;SDS011;75147;50.294;18.660;2024-02-26T09:26:17;10.02;;;5.05;;
84288;SDS011;75147;50.294;18.660;2024-02-26T09:28:43;15.30;;;5.75;;
84288;SDS011;75147;50.294;18.660;2024-02-26T09:31:08;12.32;;;5.47;;
84288;SDS011;75147;50.294;18.660;2024-02-26T09:33:34;11.43;;;5.32;;
84288;SDS011;75147;50.294;18.660;2024-02-26T09:35:59;8.73;;;4.43;;
84288;SDS011;75147;50.294;18.660;2024-02-26T09:38:28;11.68;;;5.22;;
84288;SDS011;75147;50.294;18.660;2024-02-26T09:40:55;8.65;;;4.40;;
84288;SDS011;75147;50.294;18.660;2024-02-26T09:43:24;11.00;;;4.53;;
84288;SDS011;75147;50.294;18.660;2024-02-26T09:45:57;13.60;;;5.72;;
84288;SDS011;75147;50.294;18.660;2024-02-26T09:48:22;9.02;;;5.10;;
84288;SDS011;75147;50.294;18.660;2024-02-26T09:50:48;9.30;;;5.38;;
84288;SDS011;75147;50.294;18.660;2024-02-26T09:53:14;9.23;;;5.15;;
84288;SDS011;75147;50.294;18.660;2024-02-26T09:55:40;9.02;;;4.82;;
84288;SDS011;75147;50.294;18.660;2024-02-26T09:58:06;6.57;;;4.35;;
84288;SDS011;75147;50.294;18.660;2024-02-26T10:00:32;12.82;;;6.72;;
84288;SDS011;75147;50.294;18.660;2024-02-26T10:03:05;10.57;;;6.32;;
84288;SDS011;75147;50.294;18.660;2024-02-26T10:05:34;13.43;;;5.97;;
84288;SDS011;75147;50.294;18.660;2024-02-26T10:08:02;8.50;;;4.63;;
84288;SDS011;75147;50.294;18.660;2024-02-26T10:10:29;6.95;;;4.38;;
84288;SDS011;75147;50.294;18.660;2024-02-26T10:12:56;9.25;;;4.15;;
84288;SDS011;75147;50.294;18.660;2024-02-26T10:15:24;7.97;;;4.50;;
84288;SDS011;75147;50.294;18.660;2024-02-26T10:17:49;12.20;;;4.20;;
84288;SDS011;75147;50.294;18.660;2024-02-26T10:20:16;7.30;;;4.82;;
84288;SDS011;75147;50.294;18.660;2024-02-26T10:22:48;7.53;;;4.40;;
84288;SDS011;75147;50.294;18.660;2024-02-26T10:25:14;7.85;;;4.57;;
84288;SDS011;75147;50.294;18.660;2024-02-26T10:27:40;9.88;;;6.05;;
84288;SDS011;75147;50.294;18.660;2024-02-26T10:30:19;9.70;;;6.35;;
84288;SDS011;75147;50.294;18.660;2024-02-26T10:32:50;10.00;;;5.68;;
84288;SDS011;75147;50.294;18.660;2024-02-26T10:35:16;10.00;;;5.57;;
84288;SDS011;75147;50.294;18.660;2024-02-26T10:37:42;9.43;;;4.80;;
84288;SDS011;75147;50.294;18.660;2024-02-26T10:40:12;7.72;;;4.15;;
84288;SDS011;75147;50.294;18.660;2024-02-26T10:42:39;8.57;;;4.63;;
84288;SDS011;75147;50.294;18.660;2024-02-26T10:45:05;8.73;;;5.45;;
84288;SDS011;75147;50.294;18.660;2024-02-26T10:47:32;8.45;;;4.57;;
84288;SDS011;75147;50.294;18.660;2024-02-26T10:49:58;9.48;;;5.28;;
84288;SDS011;75147;50.294;18.660;2024-02-26T10:52:24;11.75;;;5.45;;
84288;SDS011;75147;50.294;18.660;2024-02-26T10:54:53;9.20;;;4.60;;
84288;SDS011;75147;50.294;18.660;2024-02-26T10:57:21;10.68;;;4.97;;
84288;SDS011;75147;50.294;18.660;2024-02-26T10:59:48;9.05;;;5.03;;
84288;SDS011;75147;50.294;18.660;2024-02-26T11:02:14;10.45;;;5.22;;
84288;SDS011;75147;50.294;18.660;2024-02-26T11:04:39;6.00;;;3.80;;
84288;SDS011;75147;50.294;18.660;2024-02-26T11:07:06;6.65;;;3.72;;
84288;SDS011;75147;50.294;18.660;2024-02-26T11:09:34;6.22;;;3.30;;
84288;SDS011;75147;50.294;18.660;2024-02-26T11:12:01;7.15;;;3.08;;
84288;SDS011;75147;50.294;18.660;2024-02-26T11:14:27;5.00;;;2.83;;
84288;SDS011;75147;50.294;18.660;2024-02-26T11:16:56;5.70;;;3.08;;
84288;SDS011;75147;50.294;18.660;2024-02-26T11:19:23;4.68;;;2.67;;
84288;SDS011;75147;50.294;18.660;2024-02-26T11:21:49;6.72;;;3.33;;
84288;SDS011;75147;50.294;18.660;2024-02-26T11:24:15;4.88;;;2.63;;
84288;SDS011;75147;50.294;18.660;2024-02-26T11:26:48;5.38;;;2.80;;
84288;SDS011;75147;50.294;18.660;2024-02-26T11:29:21;6.07;;;3.00;;
84288;SDS011;75147;50.294;18.660;2024-02-26T11:31:48;5.10;;;2.72;;
84288;SDS011;75147;50.294;18.660;2024-02-26T11:34:14;6.28;;;3.40;;
84288;SDS011;75147;50.294;18.660;2024-02-26T11:36:39;6.82;;;3.38;;
84288;SDS011;75147;50.294;18.660;2024-02-26T11:39:05;4.80;;;2.90;;
84288;SDS011;75147;50.294;18.660;2024-02-26T11:41:31;6.03;;;3.90;;
84288;SDS011;75147;50.294;18.660;2024-02-26T11:44:01;8.93;;;3.50;;
84288;SDS011;75147;50.294;18.660;2024-02-26T11:46:28;8.07;;;3.95;;
84288;SDS011;75147;50.294;18.660;2024-02-26T11:48:59;7.25;;;3.80;;
84288;SDS011;75147;50.294;18.660;2024-02-26T11:51:28;6.22;;;4.10;;
84288;SDS011;75147;50.294;18.660;2024-02-26T11:53:58;9.77;;;3.85;;
84288;SDS011;75147;50.294;18.660;2024-02-26T11:56:24;7.70;;;3.92;;
84288;SDS011;75147;50.294;18.660;2024-02-26T11:58:58;6.03;;;3.10;;
84288;SDS011;75147;50.294;18.660;2024-02-26T12:04:06;4.40;;;2.72;;
84288;SDS011;75147;50.294;18.660;2024-02-26T12:06:45;7.97;;;3.53;;
84288;SDS011;75147;50.294;18.660;2024-02-26T12:09:12;6.70;;;3.35;;
84288;SDS011;75147;50.294;18.660;2024-02-26T12:11:39;7.57;;;3.40;;
84288;SDS011;75147;50.294;18.660;2024-02-26T12:14:05;6.50;;;2.95;;
84288;SDS011;75147;50.294;18.660;2024-02-26T12:16:40;5.70;;;3.30;;
84288;SDS011;75147;50.294;18.660;2024-02-26T12:19:08;4.95;;;3.05;;
84288;SDS011;75147;50.294;18.660;2024-02-26T12:21:37;6.30;;;3.28;;
84288;SDS011;75147;50.294;18.660;2024-02-26T12:24:12;5.40;;;3.22;;
84288;SDS011;75147;50.294;18.660;2024-02-26T12:26:39;5.97;;;3.22;;
84288;SDS011;75147;50.294;18.660;2024-02-26T12:29:05;4.63;;;3.35;;
84288;SDS011;75147;50.294;18.660;2024-02-26T12:31:32;4.93;;;3.25;;
84288;SDS011;75147;50.294;18.660;2024-02-26T12:33:59;5.50;;;3.10;;
84288;SDS011;75147;50.294;18.660;2024-02-26T12:36:25;5.13;;;3.28;;
84288;SDS011;75147;50.294;18.660;2024-02-26T12:38:51;10.68;;;5.35;;
84288;SDS011;75147;50.294;18.660;2024-02-26T12:41:17;6.13;;;3.72;;
84288;SDS011;75147;50.294;18.660;2024-02-26T12:43:42;6.85;;;4.78;;
84288;SDS011;75147;50.294;18.660;2024-02-26T12:46:08;7.53;;;4.25;;
84288;SDS011;75147;50.294;18.660;2024-02-26T12:48:33;7.65;;;4.18;;
84288;SDS011;75147;50.294;18.660;2024-02-26T12:50:59;5.40;;;3.60;;
84288;SDS011;75147;50.294;18.660;2024-02-26T12:53:25;5.38;;;3.20;;
84288;SDS011;75147;50.294;18.660;2024-02-26T12:55:52;9.70;;;5.15;;
84288;SDS011;75147;50.294;18.660;2024-02-26T12:58:21;9.48;;;5.22;;
84288;SDS011;75147;50.294;18.660;2024-02-26T13:00:51;7.63;;;4.47;;
84288;SDS011;75147;50.294;18.660;2024-02-26T13:03:17;9.43;;;4.60;;
84288;SDS011;75147;50.294;18.660;2024-02-26T13:05:44;7.13;;;3.90;;
84288;SDS011;75147;50.294;18.660;2024-02-26T13:08:10;5.57;;;3.65;;
84288;SDS011;75147;50.294;18.660;2024-02-26T13:10:42;7.50;;;4.00;;
84288;SDS011;75147;50.294;18.660;2024-02-26T13:13:08;6.30;;;3.80;;
84288;SDS011;75147;50.294;18.660;2024-02-26T13:15:33;8.95;;;4.00;;
84288;SDS011;75147;50.294;18.660;2024-02-26T13:17:59;6.07;;;3.78;;
84288;SDS011;75147;50.294;18.660;2024-02-26T13:20:37;7.32;;;4.43;;
84288;SDS011;75147;50.294;18.660;2024-02-26T13:23:10;5.30;;;3.20;;
84288;SDS011;75147;50.294;18.660;2024-02-26T13:25:36;6.30;;;3.70;;
84288;SDS011;75147;50.294;18.660;2024-02-26T13:28:25;7.60;;;4.00;;
84288;SDS011;75147;50.294;18.660;2024-02-26T13:30:55;6.25;;;4.07;;
84288;SDS011;75147;50.294;18.660;2024-02-26T13:33:22;6.65;;;3.53;;
84288;SDS011;75147;50.294;18.660;2024-02-26T13:35:48;6.47;;;3.22;;
84288;SDS011;75147;50.294;18.660;2024-02-26T13:38:13;6.80;;;3.55;;
84288;SDS011;75147;50.294;18.660;2024-02-26T13:40:39;6.50;;;4.15;;
84288;SDS011;75147;50.294;18.660;2024-02-26T13:43:05;6.70;;;3.60;;
84288;SDS011;75147;50.294;18.660;2024-02-26T13:45:33;6.50;;;4.10;;
84288;SDS011;75147;50.294;18.660;2024-02-26T13:48:01;7.68;;;3.97;;
84288;SDS011;75147;50.294;18.660;2024-02-26T13:50:28;7.63;;;4.18;;
84288;SDS011;75147;50.294;18.660;2024-02-26T13:52:54;10.68;;;3.70;;
84288;SDS011;75147;50.294;18.660;2024-02-26T13:55:21;6.53;;;3.70;;
84288;SDS011;75147;50.294;18.660;2024-02-26T13:57:48;7.00;;;3.47;;
84288;SDS011;75147;50.294;18.660;2024-02-26T14:00:14;4.57;;;3.72;;
84288;SDS011;75147;50.294;18.660;2024-02-26T14:02:40;6.45;;;3.80;;
84288;SDS011;75147;50.294;18.660;2024-02-26T14:05:05;6.55;;;3.67;;
84288;SDS011;75147;50.294;18.660;2024-02-26T14:07:31;6.35;;;3.47;;
84288;SDS011;75147;50.294;18.660;2024-02-26T14:09:57;6.13;;;3.67;;
84288;SDS011;75147;50.294;18.660;2024-02-26T14:12:23;5.32;;;3.55;;
84288;SDS011;75147;50.294;18.660;2024-02-26T14:14:48;6.90;;;3.75;;
84288;SDS011;75147;50.294;18.660;2024-02-26T14:17:14;5.38;;;3.25;;